Flight Track Log - Related Links

Times and Time Zones

All times are in EDT time to prevent confusion due to time zone crossing. See the N762NC flight status page for this flight to view local times or setup timezone preferences in your user account.

Time Position Orientation Groundspeed Altitude Reporting Facility
EDT Latitude Longitude Course Direction KTS MPH feet Rate Location/Type
Mon 08:24:48 PM 33.6519 -84.3733 268° West 440 506 2,600  Level Atlanta Center
Mon 08:25:48 PM 33.6792 -84.2958 67° East 334 384 4,000 1,850 Climbing Atlanta Center
Mon 08:26:48 PM 33.7503 -84.2786 11° North 247 284 6,300 2,350 Climbing Atlanta Center
Mon 08:27:48 PM 33.8003 -84.3414 314° West 283 326 8,700 2,200 Climbing Atlanta Center
Mon 08:28:00 PM 33.7105 -85.0731 280° West  Level FlightAware Approximate
Mon 08:28:48 PM 33.7894 -84.4286 262° West 288 331 10,700  Level Atlanta Center
Mon 08:29:00 PM 33.7167 -85.2051 270° West  Level FlightAware Approximate
Mon 08:29:48 PM 33.7703 -84.5311 257° West 313 360 12,500  Level Atlanta Center
Mon 08:30:00 PM 33.7125 -85.3377 268° West  Level FlightAware Approximate
Mon 08:30:48 PM 33.7386 -84.6233 248° West 325 374 13,300  Level Atlanta Center
Mon 08:31:48 PM 33.7003 -84.7503 250° West 354 407 15,300 1,750 Climbing Atlanta Center
Mon 08:32:48 PM 33.6706 -84.8525 251° West 364 419 16,800 1,500 Climbing Atlanta Center
Mon 08:33:48 PM 33.6383 -84.9719 252° West 378 435 18,300 1,400 Climbing Atlanta Center
Mon 08:34:48 PM 33.5997 -85.1014 250° West 383 441 19,600 1,250 Climbing Atlanta Center
Mon 08:35:48 PM 33.5778 -85.2281 258° West 388 447 20,800 1,200 Climbing Atlanta Center
Mon 08:36:48 PM 33.5700 -85.3653 266° West 403 464 22,000 1,250 Climbing Atlanta Center
Mon 08:37:48 PM 33.5622 -85.5022 266° West 408 470 23,300 1,100 Climbing Atlanta Center
Mon 08:38:48 PM 33.5542 -85.6417 266° West 420 483 24,200 950 Climbing Atlanta Center
Mon 08:39:48 PM 33.5481 -85.7836 267° West 420 483 25,200 1,000 Climbing Atlanta Center
Mon 08:40:48 PM 33.5503 -85.9233 271° West 420 483 26,200 900 Climbing Atlanta Center
Mon 08:41:48 PM 33.5628 -86.0606 276° West 426 490 27,000 800 Climbing Atlanta Center
Mon 08:42:48 PM 33.5872 -86.2058 281° West 431 496 27,800 500 Climbing Atlanta Center
Mon 08:43:48 PM 33.6139 -86.3536 282° West 438 504 28,000 100 Climbing Atlanta Center
Mon 08:44:48 PM 33.6403 -86.5017 282° West 450 518 28,000  Level Atlanta Center
Mon 08:45:48 PM 33.6686 -86.6472 283° West 450 518 28,000  Level Atlanta Center
Mon 08:46:48 PM 33.6842 -86.7975 277° West 450 518 28,000  Level Atlanta Center
Mon 08:47:48 PM 33.7017 -86.9453 278° West 450 518 28,000  Level Atlanta Center
Mon 08:49:24 PM 33.7272 -87.1878 277° West 450 518 28,000  Level Memphis Center
Mon 08:50:24 PM 33.7475 -87.3319 280° West 455 524 28,000  Level Memphis Center
Mon 08:51:24 PM 33.7719 -87.4783 281° West 449 517 28,000  Level Memphis Center
Mon 08:52:24 PM 33.8022 -87.6175 285° West 438 504 28,000  Level Memphis Center
Mon 08:53:24 PM 33.8367 -87.7589 286° West 438 504 28,000  Level Memphis Center
Mon 08:54:24 PM 33.8644 -87.9006 283° West 433 498 28,000  Level Memphis Center
Mon 08:55:24 PM 33.8944 -88.0450 284° West 438 504 28,000  Level Memphis Center
Mon 08:56:24 PM 33.9197 -88.1769 283° West 443 510 28,000  Level Memphis Center
Mon 08:57:24 PM 33.9453 -88.3264 282° West 456 525 28,000  Level Memphis Center
Mon 08:58:24 PM 33.9747 -88.4761 283° West 456 525 28,000  Level Memphis Center
Mon 08:59:24 PM 34.0042 -88.6258 283° West 456 525 28,000  Level Memphis Center
Mon 09:00:24 PM 34.0311 -88.7756 282° West 456 525 28,000  Level Memphis Center
Mon 09:01:24 PM 34.0578 -88.9206 283° West 456 525 28,000  Level Memphis Center
Mon 09:02:24 PM 34.0867 -89.0756 283° West 456 525 28,000  Level Memphis Center
Mon 09:03:24 PM 34.1133 -89.2408 281° West 461 531 28,000  Level Memphis Center
Mon 09:04:24 PM 34.1419 -89.3961 283° West 467 537 28,000  Level Memphis Center
Mon 09:05:24 PM 34.1681 -89.5464 282° West 467 537 28,000  Level Memphis Center
Mon 09:06:24 PM 34.1961 -89.7017 282° West 467 537 28,000  Level Memphis Center
Mon 09:07:24 PM 34.2197 -89.8547 281° West 467 537 28,000  Level Memphis Center
Mon 09:08:24 PM 34.2453 -90.0106 281° West 472 543 28,000  Level Memphis Center
Mon 09:09:24 PM 34.2686 -90.1511 281° West 472 543 28,000  Level Memphis Center
Mon 09:10:24 PM 34.2958 -90.3044 282° West 467 537 28,000 -100 Level Memphis Center
Mon 09:11:24 PM 34.3231 -90.4603 282° West 467 537 27,800 -1,250 Descending Memphis Center
Mon 09:12:24 PM 34.3478 -90.6136 281° West 467 537 25,500 -2,750 Descending Memphis Center
Mon 09:13:24 PM 34.3786 -90.7622 284° West 460 529 22,300 -2,800 Descending Memphis Center
Mon 09:14:24 PM 34.4114 -90.9161 285° West 438 504 19,900 -2,450 Descending Memphis Center
Mon 09:15:24 PM 34.4464 -91.0497 288° West 426 490 17,400 -2,350 Descending Memphis Center
Mon 09:16:24 PM 34.4767 -91.1836 285° West 420 483 15,200 -2,170 Descending Memphis Center
Mon 09:16:58 PM 34.4908 -91.2542 284° West 405 466 14,000 -2,629 Descending Memphis Center
Mon 09:17:53 PM 34.5192 -91.3656 287° West 392 451 11,300 -2,512 Descending Memphis Center
Mon 09:18:24 PM 34.5417 -91.4364 291° West 396 456 10,400 -857 Descending Memphis Center
Mon 09:19:24 PM 34.5719 -91.5375 290° West 368 423 10,000 -1,000 Descending Memphis Center
Mon 09:20:24 PM 34.5942 -91.6311 286° West 306 352 8,400 -1,600 Descending Memphis Center
Mon 09:21:24 PM 34.5994 -91.7222 274° West 281 323 6,800 -1,550 Descending Memphis Center
Mon 09:22:24 PM 34.6025 -91.8131 272° West 276 318 5,300 -1,350 Descending Memphis Center
Mon 09:23:24 PM 34.6033 -91.9064 271° West 271 312 4,100 -1,100 Descending Memphis Center
Mon 09:24:24 PM 34.6064 -91.9947 272° West 271 312 3,100 -600 Descending Memphis Center
Mon 09:25:24 PM 34.6158 -92.0808 278° West 271 312 2,900 -600 Descending Memphis Center
Mon 09:26:24 PM 34.6292 -92.1617 281° West 259 298 1,900 -550 Descending Memphis Center
Mon 09:27:24 PM 34.6408 -92.2328 281° West 238 274 1,800 -200 Descending Memphis Center
Mon 09:28:24 PM 34.6672 -92.2761 307° West 175 201 1,500 -438 Descending Memphis Center
Mon 09:29:00 PM 34.6900 -92.2817 349° North 144 166 1,100 -350 Descending Memphis Center
Mon 09:30:24 PM 34.7319 -92.2753 North 113 130 800 -214 Descending Memphis Center

Login

Don't have an account? Register now (free) for customized features, flight alerts, and more!